Terminal Aerodrome Forecast
Issued by NWS

Home | Current Version | Previous Version | Graphics & Text | Print | Product List | Glossary On
Versions: 1 2 3 4 5 6 7 8 9 10 11 12 13 14 15 16 17 18 19 20 21 22 23 24 25 26 27 28 29 30 31 32 33 34
000
FTUS43 KLOT 260800 AAA
TAFMDW
TAF AMD
KMDW 260856Z 2609/2706 04011G16KT 1 1/2SM -SHSN BKN020 OVC035
     FM261000 04011G16KT 1SM -SHSN OVC012
      TEMPO 2610/2614 1/2SM SHSN VV007
     FM261700 02012G18KT 2SM -SHSN OVC015
     FM261900 36012G18KT P6SM VCSH SCT020 BKN035
     FM262200 34012KT P6SM SCT035
     FM270200 33007KT P6SM FEW040=

USA.gov is the U.S. government's official web portal to all federal, state and local government web resources and services.